Time;durP1;ratioP1;P1;durP2;ratioP2;P2;SDS_P1;SDS_P2;PMS_P1;PMS_P2;Temp;Humidity;BMP_temperature;BMP_pressure;BME280_temperature;BME280_humidity;BME280_pressure;Samples;Min_cycle;Max_cycle;Signal;HPM_P1;HPM_P2
2023/02/20 00:01:26;;;;;;;5.03;3.33;;;9.40;82.90;;;;;;4866310;29;20565;-85
2023/02/20 00:03:52;;;;;;;4.40;3.10;;;9.40;82.90;;;;;;4881610;29;20057;-85
2023/02/20 00:06:18;;;;;;;5.28;3.70;;;9.40;82.80;;;;;;4881268;29;20060;-84
2023/02/20 00:08:44;;;;;;;4.70;3.45;;;9.40;82.90;;;;;;4881028;29;20060;-85
2023/02/20 00:11:10;;;;;;;5.35;3.97;;;9.40;82.90;;;;;;4850082;29;20101;-85
2023/02/20 00:13:36;;;;;;;4.97;3.75;;;9.40;82.90;;;;;;4872009;29;20029;-86
2023/02/20 00:16:02;;;;;;;4.97;3.65;;;9.30;82.90;;;;;;4878045;29;20572;-84
2023/02/20 00:18:27;;;;;;;5.30;4.00;;;9.30;82.90;;;;;;4880967;29;20029;-84
2023/02/20 00:20:53;;;;;;;5.85;4.00;;;9.30;82.90;;;;;;4878928;29;20096;-85
2023/02/20 00:23:21;;;;;;;5.90;4.18;;;9.30;82.90;;;;;;4865361;29;20489;-85
2023/02/20 00:25:47;;;;;;;5.65;4.10;;;9.30;82.80;;;;;;4855482;29;20026;-85
2023/02/20 00:28:13;;;;;;;5.45;4.07;;;9.30;82.80;;;;;;4886782;29;20035;-85
2023/02/20 00:30:39;;;;;;;5.32;4.00;;;9.30;82.90;;;;;;4870794;29;20069;-85
2023/02/20 00:33:05;;;;;;;5.80;4.45;;;9.30;82.90;;;;;;4890299;29;20029;-86
2023/02/20 00:35:31;;;;;;;6.10;3.83;;;9.30;82.90;;;;;;4886506;29;20037;-85
2023/02/20 00:37:57;;;;;;;5.68;4.32;;;9.30;82.90;;;;;;4873608;29;20032;-85
2023/02/20 00:40:24;;;;;;;5.80;4.25;;;9.30;82.90;;;;;;4883080;29;20471;-85
2023/02/20 00:42:50;;;;;;;5.55;4.45;;;9.30;82.90;;;;;;4861865;29;20574;-85
2023/02/20 00:45:17;;;;;;;6.75;4.90;;;9.30;82.90;;;;;;4866845;29;20037;-85
2023/02/20 00:47:43;;;;;;;7.07;4.78;;;9.30;82.90;;;;;;4868865;29;20029;-85
2023/02/20 00:50:11;;;;;;;6.28;4.78;;;9.30;82.90;;;;;;4880481;29;20041;-85
2023/02/20 00:52:38;;;;;;;6.00;4.45;;;9.30;82.90;;;;;;4870714;29;20048;-85
2023/02/20 00:55:04;;;;;;;6.78;4.97;;;9.20;82.80;;;;;;4867070;29;20065;-85
2023/02/20 00:57:30;;;;;;;6.63;4.75;;;9.30;82.90;;;;;;4860088;29;20051;-84
2023/02/20 00:59:59;;;;;;;6.38;4.80;;;9.30;82.90;;;;;;4913779;29;20549;-84
2023/02/20 01:02:25;;;;;;;6.03;4.57;;;9.30;82.90;;;;;;4907736;29;20092;-84
2023/02/20 01:04:51;;;;;;;6.82;5.22;;;9.20;82.90;;;;;;4874248;29;20021;-85
2023/02/20 01:07:17;;;;;;;6.60;4.57;;;9.20;82.90;;;;;;4862579;29;20518;-84
2023/02/20 01:09:43;;;;;;;7.10;5.35;;;9.30;82.90;;;;;;4852642;29;20036;-85
2023/02/20 01:12:09;;;;;;;6.45;4.50;;;9.20;82.90;;;;;;4868253;29;20033;-85
2023/02/20 01:14:35;;;;;;;7.07;5.07;;;9.20;82.90;;;;;;4875252;29;20032;-85
2023/02/20 01:17:01;;;;;;;7.30;4.63;;;9.20;82.90;;;;;;4884416;29;20116;-85
2023/02/20 01:19:26;;;;;;;7.85;4.90;;;9.20;82.90;;;;;;4863964;29;20515;-85
2023/02/20 01:21:55;;;;;;;5.97;4.35;;;9.20;82.90;;;;;;4860679;29;20052;-84
2023/02/20 01:24:20;;;;;;;5.63;4.28;;;9.20;82.90;;;;;;4870902;29;20118;-84
2023/02/20 01:26:48;;;;;;;6.40;4.70;;;9.20;82.90;;;;;;4860573;29;20131;-85
2023/02/20 01:29:16;;;;;;;6.15;4.60;;;9.20;82.90;;;;;;4867255;29;20747;-85
2023/02/20 01:31:49;;;;;;;6.00;4.65;;;9.20;82.90;;;;;;4880078;29;20044;-85
2023/02/20 01:34:19;;;;;;;6.68;4.90;;;9.20;83.00;;;;;;4893238;29;20029;-85
2023/02/20 01:36:47;;;;;;;6.65;4.85;;;9.20;82.90;;;;;;4866937;29;20021;-85
2023/02/20 01:39:19;;;;;;;6.68;4.45;;;9.20;83.10;;;;;;4867338;29;20092;-85
2023/02/20 01:41:48;;;;;;;6.28;4.78;;;9.20;82.90;;;;;;4867725;29;20041;-85
2023/02/20 01:44:23;;;;;;;6.65;4.57;;;9.20;82.90;;;;;;4891147;29;20028;-85
2023/02/20 01:46:52;;;;;;;6.82;5.18;;;9.20;83.00;;;;;;4881173;29;20028;-85
2023/02/20 01:49:25;;;;;;;6.80;4.72;;;9.20;82.90;;;;;;4883509;29;20497;-85
2023/02/20 01:52:16;;;;;;;6.05;4.70;;;9.20;83.00;;;;;;4868454;29;20049;-85
2023/02/20 01:54:44;;;;;;;5.93;4.40;;;9.20;83.00;;;;;;4877547;29;20037;-85
2023/02/20 01:57:16;;;;;;;6.15;4.65;;;9.20;83.00;;;;;;4882850;29;20662;-86
2023/02/20 01:59:44;;;;;;;5.60;4.20;;;9.20;82.90;;;;;;4872021;29;20033;-85
2023/02/20 02:02:12;;;;;;;6.65;4.97;;;9.10;82.90;;;;;;4867190;29;20091;-85
2023/02/20 02:04:40;;;;;;;6.05;4.50;;;9.10;82.90;;;;;;4876810;29;20534;-85
2023/02/20 02:07:06;;;;;;;6.22;4.75;;;9.10;82.90;;;;;;4856825;29;20363;-86
2023/02/20 02:09:46;;;;;;;6.07;4.90;;;9.10;82.90;;;;;;4861493;29;20059;-86
2023/02/20 02:12:12;;;;;;;6.32;4.75;;;9.10;83.00;;;;;;4881608;29;20099;-86
2023/02/20 02:14:37;;;;;;;5.30;4.10;;;9.10;82.90;;;;;;4887931;29;20100;-86
2023/02/20 02:17:06;;;;;;;6.45;4.70;;;9.10;82.90;;;;;;4882890;29;20037;-86
2023/02/20 02:20:02;;;;;;;6.30;4.63;;;9.10;82.90;;;;;;4866667;29;20033;-84
2023/02/20 02:22:43;;;;;;;6.75;5.05;;;9.10;83.00;;;;;;4884896;29;20049;-85
2023/02/20 02:25:31;;;;;;;6.38;4.50;;;9.10;82.90;;;;;;4888593;29;20041;-85
2023/02/20 02:28:24;;;;;;;6.60;4.57;;;9.10;82.90;;;;;;4860681;29;20033;-85
2023/02/20 02:31:08;;;;;;;5.95;4.35;;;9.00;82.90;;;;;;4867837;29;20135;-85
2023/02/20 02:33:52;;;;;;;5.97;4.78;;;9.00;82.90;;;;;;4861208;29;20064;-84
2023/02/20 02:36:51;;;;;;;6.32;4.97;;;9.00;82.90;;;;;;4880562;29;20089;-86
2023/02/20 02:39:45;;;;;;;6.30;4.45;;;9.00;82.90;;;;;;4885989;29;20053;-85
2023/02/20 02:42:19;;;;;;;5.22;4.10;;;9.00;82.90;;;;;;4864949;29;20059;-86
2023/02/20 02:45:01;;;;;;;6.40;4.75;;;9.00;82.90;;;;;;4870776;29;20043;-85
2023/02/20 02:47:40;;;;;;;6.47;4.88;;;9.00;82.90;;;;;;4879384;29;20032;-85
2023/02/20 02:50:14;;;;;;;6.53;4.70;;;9.00;82.90;;;;;;4865927;29;20059;-84
2023/02/20 02:52:49;;;;;;;6.82;5.22;;;9.00;82.90;;;;;;4881346;29;20085;-85
2023/02/20 02:55:24;;;;;;;7.57;5.30;;;9.00;82.90;;;;;;4867894;29;20052;-84
2023/02/20 02:57:50;;;;;;;7.47;5.07;;;9.00;83.00;;;;;;4864085;29;20039;-85
2023/02/20 03:00:25;;;;;;;6.50;5.00;;;8.90;82.90;;;;;;4848585;29;20401;-84
2023/02/20 03:03:00;;;;;;;7.45;5.10;;;9.00;83.00;;;;;;4878242;29;20033;-85
2023/02/20 03:05:39;;;;;;;6.22;4.85;;;9.00;83.00;;;;;;4883883;29;20140;-84
2023/02/20 03:08:13;;;;;;;7.13;4.97;;;9.00;83.00;;;;;;4879294;29;20559;-85
2023/02/20 03:10:43;;;;;;;6.57;5.20;;;8.90;82.90;;;;;;4864206;29;20077;-85
2023/02/20 03:13:11;;;;;;;6.65;5.18;;;8.90;82.90;;;;;;4863420;29;20463;-84
2023/02/20 03:15:45;;;;;;;6.88;5.15;;;9.00;82.90;;;;;;4864340;29;20033;-85
2023/02/20 03:18:34;;;;;;;9.13;5.30;;;9.00;83.00;;;;;;4864084;29;20032;-85
2023/02/20 03:21:05;;;;;;;7.35;5.55;;;9.00;83.00;;;;;;4874257;29;20474;-85
2023/02/20 03:23:37;;;;;;;7.10;5.13;;;9.00;82.90;;;;;;4864126;29;20037;-85
2023/02/20 03:26:29;;;;;;;8.38;5.70;;;9.00;83.00;;;;;;4864390;29;20037;-85
2023/02/20 03:29:13;;;;;;;7.15;5.38;;;9.00;83.00;;;;;;4879611;29;20033;-85
2023/02/20 03:31:42;;;;;;;7.43;5.72;;;9.00;83.00;;;;;;4879712;29;20061;-85
2023/02/20 03:45:38;;;;;;;7.70;5.68;;;9.00;82.90;;;;;;4892177;29;20041;-85
2023/02/20 03:48:13;;;;;;;8.65;6.78;;;9.00;82.90;;;;;;4863796;29;20536;-85
2023/02/20 03:53:34;;;;;;;8.43;6.45;;;9.00;82.90;;;;;;4871713;29;20041;-84
2023/02/20 03:56:07;;;;;;;9.52;6.55;;;9.00;82.80;;;;;;4862607;29;20064;-84
2023/02/20 03:58:39;;;;;;;7.97;6.63;;;9.00;82.90;;;;;;4883452;29;20052;-84
2023/02/20 04:01:08;;;;;;;9.77;7.13;;;9.00;82.90;;;;;;4887666;29;20040;-84
2023/02/20 04:03:38;;;;;;;9.90;7.25;;;9.00;82.90;;;;;;4881901;29;20043;-85
2023/02/20 04:06:07;;;;;;;10.65;7.55;;;9.00;82.90;;;;;;4865342;29;20064;-85
2023/02/20 04:08:43;;;;;;;9.32;7.35;;;9.00;82.90;;;;;;4878405;29;20036;-84
2023/02/20 04:11:27;;;;;;;10.25;7.72;;;9.00;82.90;;;;;;4867505;29;20069;-85
2023/02/20 04:13:55;;;;;;;9.80;7.50;;;9.00;82.90;;;;;;4878700;29;20477;-84
2023/02/20 04:16:22;;;;;;;10.75;7.35;;;9.10;82.90;;;;;;4866654;29;20025;-84
2023/02/20 04:18:49;;;;;;;10.18;7.68;;;9.10;82.90;;;;;;4878268;29;20025;-84
2023/02/20 04:21:40;;;;;;;9.82;8.00;;;9.10;82.90;;;;;;4851214;29;20029;-84
2023/02/20 04:24:14;;;;;;;11.07;8.15;;;9.10;83.00;;;;;;4882692;29;20037;-85
2023/02/20 04:26:44;;;;;;;9.63;7.80;;;9.10;82.90;;;;;;4861472;29;20029;-87
2023/02/20 04:29:10;;;;;;;9.95;8.40;;;9.10;82.90;;;;;;4865386;29;20041;-84
2023/02/20 04:31:36;;;;;;;10.88;8.60;;;9.10;82.90;;;;;;4877775;29;20032;-85
2023/02/20 04:34:02;;;;;;;10.85;8.60;;;9.10;82.90;;;;;;4851664;29;20056;-85
2023/02/20 04:36:28;;;;;;;10.65;8.13;;;9.10;82.90;;;;;;4866133;29;20033;-85
2023/02/20 04:38:57;;;;;;;11.02;8.20;;;9.20;82.90;;;;;;4866240;29;20029;-85
2023/02/20 04:41:29;;;;;;;11.20;9.50;;;9.10;82.90;;;;;;4885477;29;20584;-85
2023/02/20 04:44:30;;;;;;;11.05;9.00;;;9.20;82.90;;;;;;4861561;29;20467;-84
2023/02/20 04:46:41;;;;;;;12.55;9.77;;;9.10;82.90;;;;;;4890732;29;20048;-85
2023/02/20 04:49:07;;;;;;;11.13;8.75;;;9.10;82.80;;;;;;4843359;29;20037;-85
2023/02/20 04:51:32;;;;;;;11.85;8.98;;;9.10;82.90;;;;;;4878591;29;20044;-85
2023/02/20 04:53:58;;;;;;;10.55;9.38;;;9.20;83.00;;;;;;4862580;29;20097;-87
2023/02/20 04:56:24;;;;;;;11.10;8.93;;;9.20;82.90;;;;;;4849491;29;20044;-86
2023/02/20 04:58:52;;;;;;;11.57;9.63;;;9.20;82.90;;;;;;4862907;29;20493;-86
2023/02/20 05:01:20;;;;;;;11.38;9.23;;;9.20;82.90;;;;;;4863725;29;20161;-85
2023/02/20 05:03:46;;;;;;;12.93;10.45;;;9.20;82.90;;;;;;4878969;29;20119;-86
2023/02/20 05:06:12;;;;;;;11.82;9.95;;;9.20;82.90;;;;;;4878263;29;20040;-86
2023/02/20 05:08:37;;;;;;;14.50;10.13;;;9.20;82.90;;;;;;4848250;29;20037;-86
2023/02/20 05:11:03;;;;;;;12.85;9.90;;;9.30;82.90;;;;;;4879781;29;20045;-85
2023/02/20 05:13:30;;;;;;;11.27;9.20;;;9.20;82.80;;;;;;4858027;29;20367;-86
2023/02/20 05:16:01;;;;;;;12.40;10.10;;;9.20;82.80;;;;;;4866437;29;20037;-85
2023/02/20 05:18:30;;;;;;;11.85;9.32;;;9.20;82.80;;;;;;4886427;29;20036;-85
2023/02/20 05:23:47;;;;;;;11.57;9.13;;;9.30;83.00;;;;;;4895777;29;20037;-86
2023/02/20 05:26:20;;;;;;;12.65;9.45;;;9.30;82.90;;;;;;4869674;29;20490;-86
2023/02/20 05:28:46;;;;;;;11.23;9.40;;;9.30;83.00;;;;;;4870912;29;20029;-86
2023/02/20 05:31:12;;;;;;;11.52;9.32;;;9.30;83.00;;;;;;4883797;29;20042;-86
2023/02/20 05:33:38;;;;;;;11.68;10.13;;;9.30;83.00;;;;;;4860558;29;20113;-87
2023/02/20 05:36:05;;;;;;;12.88;10.38;;;9.30;83.00;;;;;;4882456;29;20052;-86
2023/02/20 05:38:31;;;;;;;13.38;10.25;;;9.30;83.00;;;;;;4860361;29;20021;-86
2023/02/20 05:40:57;;;;;;;12.35;9.52;;;9.30;82.90;;;;;;4879413;29;20036;-86
2023/02/20 05:43:23;;;;;;;12.70;9.80;;;9.30;82.80;;;;;;4877998;29;20032;-86
2023/02/20 05:45:49;;;;;;;12.00;9.57;;;9.40;82.90;;;;;;4847498;29;20419;-86
2023/02/20 05:48:15;;;;;;;12.48;10.00;;;9.30;82.80;;;;;;4884206;29;20116;-85
2023/02/20 05:50:49;;;;;;;11.82;9.90;;;9.40;82.80;;;;;;4881268;29;20041;-85
2023/02/20 05:53:18;;;;;;;12.07;9.90;;;9.40;82.90;;;;;;4868661;29;20056;-85
2023/02/20 05:55:44;;;;;;;12.55;9.70;;;9.40;82.80;;;;;;4861749;29;20029;-84
2023/02/20 05:58:10;;;;;;;11.07;8.80;;;9.40;82.80;;;;;;4853610;29;20048;-83
2023/02/20 06:00:35;;;;;;;11.93;10.10;;;9.40;82.80;;;;;;4888749;29;20037;-83
2023/02/20 06:03:05;;;;;;;11.02;9.38;;;9.40;82.80;;;;;;4868154;29;20041;-83
2023/02/20 06:05:31;;;;;;;11.27;9.35;;;9.40;82.80;;;;;;4846776;29;20107;-83
2023/02/20 06:08:00;;;;;;;11.52;9.07;;;9.40;82.80;;;;;;4865716;29;20045;-83
2023/02/20 06:10:26;;;;;;;11.90;9.55;;;9.40;82.80;;;;;;4878782;29;20033;-84
2023/02/20 06:12:58;;;;;;;10.45;8.75;;;9.50;82.80;;;;;;4884108;29;20021;-84
2023/02/20 06:15:23;;;;;;;12.70;9.75;;;9.50;82.80;;;;;;4880238;29;20096;-83
2023/02/20 06:17:52;;;;;;;11.18;8.93;;;9.50;82.80;;;;;;4848274;29;20029;-83
2023/02/20 06:20:18;;;;;;;11.30;9.18;;;9.50;82.80;;;;;;4894482;29;20063;-82
2023/02/20 06:22:43;;;;;;;11.25;8.55;;;9.50;82.80;;;;;;4880632;29;20129;-81
2023/02/20 06:25:17;;;;;;;10.30;8.55;;;9.50;82.80;;;;;;4879968;29;20029;-83
2023/02/20 06:27:43;;;;;;;12.77;8.95;;;9.50;82.70;;;;;;4882717;29;20024;-85
2023/02/20 06:30:10;;;;;;;11.50;8.90;;;9.50;82.70;;;;;;4851377;29;20052;-86
2023/02/20 06:32:36;;;;;;;10.80;8.60;;;9.50;82.70;;;;;;4890318;29;20035;-86
2023/02/20 06:35:06;;;;;;;9.27;7.60;;;9.50;82.70;;;;;;4893446;29;20065;-84
2023/02/20 06:37:31;;;;;;;10.77;8.40;;;9.60;82.80;;;;;;4881198;29;20029;-85
2023/02/20 06:39:57;;;;;;;11.77;9.02;;;9.60;82.80;;;;;;4879082;29;20398;-85
2023/02/20 06:42:26;;;;;;;11.20;8.50;;;9.50;82.70;;;;;;4865080;29;20547;-85
2023/02/20 06:44:52;;;;;;;11.27;8.52;;;9.60;82.80;;;;;;4840135;29;20036;-84
2023/02/20 06:47:17;;;;;;;10.73;8.30;;;9.60;82.80;;;;;;4864474;29;20045;-87
2023/02/20 06:49:48;;;;;;;12.40;8.98;;;9.60;82.70;;;;;;4860608;29;20064;-86
2023/02/20 06:52:14;;;;;;;11.68;9.05;;;9.60;82.70;;;;;;4848264;29;20406;-87
2023/02/20 06:54:44;;;;;;;10.13;8.25;;;9.60;82.70;;;;;;4893961;29;20101;-87
2023/02/20 06:57:15;;;;;;;10.68;8.40;;;9.60;82.70;;;;;;4887474;29;20029;-88
2023/02/20 06:59:46;;;;;;;12.38;9.48;;;9.60;82.70;;;;;;4879339;29;20045;-88
2023/02/20 07:02:16;;;;;;;13.32;9.05;;;9.60;82.70;;;;;;4864253;29;20037;-86
2023/02/20 07:04:48;;;;;;;10.60;8.52;;;9.70;82.70;;;;;;4880736;29;20045;-89
2023/02/20 07:07:23;;;;;;;11.00;8.18;;;9.70;82.80;;;;;;4864642;29;20043;-88
2023/02/20 07:09:51;;;;;;;10.98;8.40;;;9.70;82.70;;;;;;4850054;29;20032;-88
2023/02/20 07:12:17;;;;;;;11.25;8.63;;;9.70;82.70;;;;;;4864993;29;20132;-87
2023/02/20 07:14:43;;;;;;;11.07;8.40;;;9.70;82.60;;;;;;4875753;29;20108;-85
2023/02/20 07:17:09;;;;;;;11.98;8.65;;;9.70;82.60;;;;;;4860996;29;20041;-89
2023/02/20 07:19:40;;;;;;;11.65;8.55;;;9.70;82.60;;;;;;4863502;29;20070;-86
2023/02/20 07:22:06;;;;;;;11.15;8.65;;;9.70;82.60;;;;;;4861525;29;20037;-84
2023/02/20 07:24:34;;;;;;;11.35;9.10;;;9.70;82.70;;;;;;4884607;29;20415;-87
2023/02/20 07:27:02;;;;;;;11.73;8.73;;;9.80;82.70;;;;;;4884733;29;20533;-85
2023/02/20 07:29:28;;;;;;;11.98;9.10;;;9.80;82.70;;;;;;4867317;29;20059;-84
2023/02/20 07:31:57;;;;;;;12.77;8.90;;;9.80;82.70;;;;;;4879481;29;20081;-85
2023/02/20 07:34:23;;;;;;;11.75;8.05;;;9.80;82.60;;;;;;4862896;29;20101;-84
2023/02/20 07:36:48;;;;;;;11.60;8.75;;;9.80;82.60;;;;;;4886047;29;20103;-83
2023/02/20 07:39:15;;;;;;;12.20;8.18;;;9.80;82.60;;;;;;4888790;29;20100;-84
2023/02/20 07:41:41;;;;;;;11.80;8.88;;;9.80;82.60;;;;;;4861538;29;20038;-84
2023/02/20 07:44:27;;;;;;;11.88;8.10;;;9.80;82.60;;;;;;4884045;29;20047;-85
2023/02/20 07:46:53;;;;;;;9.75;7.70;;;9.80;82.50;;;;;;4862160;29;20033;-85
2023/02/20 07:49:19;;;;;;;10.57;8.45;;;9.90;82.60;;;;;;4852907;29;20117;-84
2023/02/20 07:51:45;;;;;;;12.07;8.60;;;9.80;82.60;;;;;;4879431;29;20032;-88
2023/02/20 07:54:11;;;;;;;11.65;8.63;;;9.90;82.60;;;;;;4863740;29;20490;-83
2023/02/20 07:56:39;;;;;;;11.70;8.40;;;9.90;82.60;;;;;;4867548;29;20040;-86
2023/02/20 07:59:05;;;;;;;11.90;9.07;;;9.90;82.60;;;;;;4866686;29;20490;-83
2023/02/20 08:01:31;;;;;;;12.73;9.10;;;9.90;82.50;;;;;;4866009;29;20044;-86
2023/02/20 08:04:00;;;;;;;12.40;8.95;;;9.90;82.50;;;;;;4846395;29;20129;-88
2023/02/20 08:06:28;;;;;;;12.65;8.68;;;9.90;83.10;;;;;;4859944;29;20033;-84
2023/02/20 08:08:54;;;;;;;12.30;9.30;;;9.90;82.50;;;;;;4873990;29;20120;-83
2023/02/20 08:11:24;;;;;;;14.05;9.07;;;9.90;82.50;;;;;;4859887;29;20128;-85
2023/02/20 08:13:54;;;;;;;12.60;8.88;;;10.00;82.50;;;;;;4875564;29;20478;-85
2023/02/20 08:16:20;;;;;;;11.68;9.20;;;10.00;82.50;;;;;;4877327;29;20553;-84
2023/02/20 08:18:46;;;;;;;12.05;9.48;;;10.00;82.50;;;;;;4883030;29;20063;-84
2023/02/20 08:21:12;;;;;;;10.93;9.05;;;10.00;82.50;;;;;;4857979;29;20040;-86
2023/02/20 08:23:44;;;;;;;10.93;8.27;;;10.00;82.50;;;;;;4876101;29;20120;-86
2023/02/20 08:26:10;;;;;;;11.88;8.98;;;10.00;82.50;;;;;;4865639;29;20021;-92
2023/02/20 08:28:36;;;;;;;11.93;8.77;;;10.00;82.50;;;;;;4841520;29;20068;-85
2023/02/20 08:31:03;;;;;;;12.32;9.32;;;10.00;82.50;;;;;;4874461;29;20033;-83
2023/02/20 08:33:28;;;;;;;12.63;9.27;;;10.00;82.50;;;;;;4877758;29;20083;-83
2023/02/20 08:35:56;;;;;;;11.35;8.90;;;10.10;82.50;;;;;;4858951;29;20057;-86
2023/02/20 08:38:34;;;;;;;13.15;9.10;;;10.10;82.50;;;;;;4859558;29;20072;-85
2023/02/20 08:41:06;;;;;;;10.93;8.35;;;10.10;82.60;;;;;;4875534;29;20088;-86
2023/02/20 08:43:33;;;;;;;10.75;8.32;;;10.10;82.50;;;;;;4852724;29;20037;-84
2023/02/20 08:45:59;;;;;;;11.05;8.35;;;10.10;82.60;;;;;;4858493;29;20400;-86
2023/02/20 08:48:25;;;;;;;13.27;9.55;;;10.10;82.50;;;;;;4866618;29;20033;-86
2023/02/20 08:50:51;;;;;;;11.80;8.38;;;10.10;82.50;;;;;;4869851;29;20037;-85
2023/02/20 08:53:17;;;;;;;11.98;9.25;;;10.10;82.50;;;;;;4863814;29;20045;-86
2023/02/20 08:55:42;;;;;;;11.48;8.98;;;10.10;82.50;;;;;;4880206;29;20033;-86
2023/02/20 08:58:08;;;;;;;11.13;8.77;;;10.10;82.50;;;;;;4857527;29;20044;-86
2023/02/20 09:00:34;;;;;;;10.60;8.35;;;10.10;82.50;;;;;;4849791;29;20053;-88
2023/02/20 09:03:00;;;;;;;11.68;9.13;;;10.10;82.50;;;;;;4862573;29;20034;-87
2023/02/20 09:05:28;;;;;;;12.75;10.25;;;10.20;82.50;;;;;;4845029;29;20469;-86
2023/02/20 09:07:54;;;;;;;12.98;8.77;;;10.20;82.50;;;;;;4836850;29;20041;-86
2023/02/20 09:10:20;;;;;;;11.95;8.85;;;10.20;82.50;;;;;;4863307;29;20039;-87
2023/02/20 09:12:46;;;;;;;11.43;8.63;;;10.20;82.50;;;;;;4878807;29;20044;-86
2023/02/20 09:15:16;;;;;;;12.30;9.10;;;10.20;82.50;;;;;;4860911;29;20041;-84
2023/02/20 09:17:44;;;;;;;12.63;9.15;;;10.20;82.50;;;;;;4878238;29;20047;-87
2023/02/20 09:20:10;;;;;;;11.63;9.02;;;10.20;82.50;;;;;;4869372;29;20497;-85
2023/02/20 09:22:36;;;;;;;12.30;8.70;;;10.20;82.40;;;;;;4848015;29;20056;-88
2023/02/20 09:25:04;;;;;;;12.25;9.23;;;10.30;82.50;;;;;;4848356;29;20478;-85
2023/02/20 09:27:29;;;;;;;11.55;8.13;;;10.30;82.50;;;;;;4863629;29;20025;-84
2023/02/20 09:29:55;;;;;;;13.20;8.93;;;10.30;82.50;;;;;;4879841;29;20119;-85
2023/02/20 09:32:21;;;;;;;12.18;8.60;;;10.30;82.50;;;;;;4848696;29;20041;-85
2023/02/20 09:34:54;;;;;;;10.15;8.30;;;10.30;82.40;;;;;;4865169;29;20084;-85
2023/02/20 09:37:19;;;;;;;11.45;8.40;;;10.30;82.40;;;;;;4863775;29;20028;-81
2023/02/20 09:39:45;;;;;;;10.85;8.13;;;10.40;82.50;;;;;;4864000;29;20055;-83
2023/02/20 09:42:46;;;;;;;10.85;8.15;;;10.30;82.40;;;;;;4879661;29;20103;-84
2023/02/20 09:45:35;;;;;;;10.57;8.32;;;10.40;82.50;;;;;;4877868;29;20033;-85
2023/02/20 09:48:08;;;;;;;9.95;7.63;;;10.40;82.40;;;;;;4854600;29;20092;-85
2023/02/20 09:50:46;;;;;;;10.70;7.57;;;10.40;82.40;;;;;;4886664;29;20036;-84
2023/02/20 09:53:22;;;;;;;10.75;7.90;;;10.40;82.40;;;;;;4887987;29;20104;-84
2023/02/20 09:55:49;;;;;;;12.35;7.80;;;10.40;82.40;;;;;;4881451;29;20083;-83
2023/02/20 09:58:23;;;;;;;9.75;7.55;;;10.40;82.40;;;;;;4883461;29;20076;-84
2023/02/20 10:00:49;;;;;;;10.02;7.65;;;10.40;82.40;;;;;;4872832;29;20033;-85
2023/02/20 10:03:24;;;;;;;11.10;7.60;;;10.50;82.40;;;;;;4880060;29;20470;-85
2023/02/20 10:05:51;;;;;;;;;;;10.50;82.40;;;;;;4895771;29;20083;-85
2023/02/20 10:08:20;;;;;;;8.88;6.40;;;10.50;82.20;;;;;;4863878;29;19920;-85
2023/02/20 10:10:49;;;;;;;9.05;6.90;;;10.50;82.20;;;;;;4872319;29;20043;-85
2023/02/20 10:13:36;;;;;;;8.48;6.43;;;10.50;82.30;;;;;;4863915;29;20021;-85
2023/02/20 10:16:16;;;;;;;9.85;6.90;;;10.50;82.30;;;;;;4898659;29;20033;-85
2023/02/20 10:19:06;;;;;;;8.20;6.60;;;10.50;82.30;;;;;;4882428;29;20032;-85
2023/02/20 10:22:20;;;;;;;9.38;7.57;;;10.50;82.30;;;;;;4879153;29;20047;-85
2023/02/20 10:24:49;;;;;;;7.50;6.38;;;10.50;82.40;;;;;;4880192;29;20044;-85
2023/02/20 10:27:36;;;;;;;8.48;6.53;;;10.60;82.30;;;;;;4877746;29;20052;-86
2023/02/20 10:30:05;;;;;;;9.57;6.75;;;10.60;82.40;;;;;;4884487;29;20048;-85
2023/02/20 10:33:11;;;;;;;9.10;6.78;;;10.60;82.30;;;;;;4859068;29;20025;-85
2023/02/20 10:35:42;;;;;;;10.32;6.97;;;10.60;82.40;;;;;;4863903;29;20056;-85
2023/02/20 10:38:12;;;;;;;9.30;6.95;;;10.60;82.30;;;;;;4864000;29;20102;-85
2023/02/20 10:40:48;;;;;;;10.35;7.00;;;10.60;82.30;;;;;;4864275;29;20069;-84
2023/02/20 10:43:32;;;;;;;7.57;6.00;;;10.70;82.40;;;;;;4862615;29;20029;-87
2023/02/20 10:46:06;;;;;;;8.95;6.93;;;10.70;82.40;;;;;;4878992;29;20035;-82
2023/02/20 10:48:34;;;;;;;9.15;7.13;;;10.70;82.40;;;;;;4886416;29;20029;-84
2023/02/20 10:51:25;;;;;;;8.90;6.72;;;10.70;82.40;;;;;;4847984;29;20093;-84
2023/02/20 10:54:31;;;;;;;9.00;6.80;;;10.70;82.40;;;;;;4850830;29;20076;-84
2023/02/20 10:57:02;;;;;;;8.90;6.85;;;10.70;82.40;;;;;;4880878;29;20041;-84
2023/02/20 10:59:35;;;;;;;9.10;6.68;;;10.80;82.40;;;;;;4869225;29;20032;-84
2023/02/20 11:02:04;;;;;;;8.65;6.68;;;10.70;82.30;;;;;;4878282;29;20037;-84
2023/02/20 11:04:38;;;;;;;8.82;6.78;;;10.80;82.40;;;;;;4883079;29;20096;-84
2023/02/20 11:07:10;;;;;;;9.65;7.10;;;10.80;82.40;;;;;;4861291;29;20033;-84
2023/02/20 11:09:36;;;;;;;8.57;6.75;;;10.80;82.40;;;;;;4878588;29;20029;-83
2023/02/20 11:12:02;;;;;;;8.65;6.50;;;10.80;82.40;;;;;;4852422;29;20044;-84
2023/02/20 11:14:41;;;;;;;9.07;6.78;;;10.80;82.40;;;;;;4877404;29;20128;-84
2023/02/20 11:17:20;;;;;;;8.80;7.05;;;10.80;82.40;;;;;;4887802;29;20069;-83
2023/02/20 11:19:52;;;;;;;9.43;6.85;;;10.80;82.40;;;;;;4880640;29;20044;-84
2023/02/20 11:22:37;;;;;;;9.00;6.75;;;10.90;82.40;;;;;;4879484;29;20029;-84
2023/02/20 11:25:19;;;;;;;8.43;6.78;;;10.90;82.50;;;;;;4864620;29;20033;-84
2023/02/20 11:27:48;;;;;;;9.73;6.20;;;10.90;82.50;;;;;;4868750;29;20029;-85
2023/02/20 11:30:40;;;;;;;8.43;6.80;;;10.90;82.40;;;;;;4884659;29;20025;-85
2023/02/20 11:33:24;;;;;;;8.10;6.43;;;10.90;82.40;;;;;;4863260;29;20034;-84
2023/02/20 11:35:55;;;;;;;8.10;6.30;;;10.90;82.50;;;;;;4843781;29;20032;-84
2023/02/20 11:38:21;;;;;;;7.70;6.05;;;11.00;82.40;;;;;;4877834;29;20067;-84
2023/02/20 11:40:59;;;;;;;9.20;6.53;;;11.00;82.40;;;;;;4877904;29;20768;-85
2023/02/20 11:43:31;;;;;;;7.68;5.95;;;10.90;82.40;;;;;;4877760;29;20084;-85
2023/02/20 11:46:22;;;;;;;7.75;5.90;;;11.00;82.40;;;;;;4862170;29;20431;-84
2023/02/20 11:49:30;;;;;;;7.22;5.68;;;11.00;82.50;;;;;;4878387;29;20029;-84
2023/02/20 11:52:17;;;;;;;8.40;5.70;;;11.00;82.40;;;;;;4888637;29;20470;-84
2023/02/20 11:54:44;;;;;;;8.18;5.47;;;11.00;82.40;;;;;;4869818;29;20133;-84
2023/02/20 11:57:26;;;;;;;7.63;5.35;;;11.00;82.30;;;;;;4880988;29;20048;-83
2023/02/20 12:00:08;;;;;;;8.05;5.30;;;11.00;82.40;;;;;;4875566;29;20113;-83
2023/02/20 12:02:48;;;;;;;6.53;5.07;;;11.00;82.40;;;;;;4890760;29;20049;-85
2023/02/20 12:05:15;;;;;;;6.72;4.85;;;11.10;82.40;;;;;;4877315;29;20032;-84
2023/02/20 12:07:42;;;;;;;6.22;4.78;;;11.10;82.40;;;;;;4861028;29;20433;-86
2023/02/20 12:10:23;;;;;;;5.78;4.50;;;11.10;82.40;;;;;;4878807;29;20063;-87
2023/02/20 12:12:50;;;;;;;6.10;4.40;;;11.10;82.40;;;;;;4864762;29;20067;-84
2023/02/20 12:15:19;;;;;;;6.75;4.85;;;11.10;82.40;;;;;;4886210;29;20025;-84
2023/02/20 12:18:22;;;;;;;7.10;4.78;;;11.10;82.40;;;;;;4886508;29;20735;-84
2023/02/20 12:21:04;;;;;;;6.80;4.50;;;11.20;82.50;;;;;;4861105;29;20043;-84
2023/02/20 12:23:40;;;;;;;6.22;4.60;;;11.20;82.40;;;;;;4872954;29;20043;-83
2023/02/20 12:26:20;;;;;;;5.93;3.95;;;11.20;82.40;;;;;;4862336;29;20040;-82
2023/02/20 12:29:35;;;;;;;5.47;4.43;;;11.20;82.40;;;;;;4861628;29;20052;-83
2023/02/20 12:32:19;;;;;;;5.15;4.00;;;11.20;82.50;;;;;;4858676;29;20112;-84
2023/02/20 12:34:50;;;;;;;5.22;3.95;;;11.20;82.30;;;;;;4866637;29;20191;-84
2023/02/20 12:37:53;;;;;;;5.13;4.20;;;11.20;82.30;;;;;;4878846;29;20049;-84
2023/02/20 12:40:46;;;;;;;5.15;4.10;;;11.20;82.40;;;;;;4855491;29;20587;-82
2023/02/20 12:43:34;;;;;;;4.75;3.30;;;11.30;82.40;;;;;;4876991;29;20032;-85
2023/02/20 12:46:27;;;;;;;5.00;3.65;;;11.30;82.40;;;;;;4877234;29;20108;-86
2023/02/20 12:49:05;;;;;;;5.25;3.58;;;11.30;82.40;;;;;;4872046;29;20033;-85
2023/02/20 12:51:43;;;;;;;5.93;3.72;;;11.30;82.40;;;;;;4861222;29;20040;-85
2023/02/20 12:54:23;;;;;;;5.10;3.70;;;11.30;82.40;;;;;;4861997;29;20114;-86
2023/02/20 12:57:04;;;;;;;5.43;3.80;;;11.30;82.40;;;;;;4854680;29;20076;-88
2023/02/20 12:59:58;;;;;;;5.72;3.78;;;11.30;82.40;;;;;;4890805;29;20116;-85
2023/02/20 13:02:37;;;;;;;4.18;3.35;;;11.30;82.40;;;;;;4863307;29;20475;-85
2023/02/20 13:05:06;;;;;;;4.70;3.50;;;11.30;82.30;;;;;;4898769;29;20044;-85
2023/02/20 13:07:46;;;;;;;5.85;3.65;;;11.30;82.30;;;;;;4891017;29;20017;-86
2023/02/20 13:10:26;;;;;;;4.88;3.83;;;11.40;82.40;;;;;;4877632;29;20052;-86
2023/02/20 13:12:58;;;;;;;5.70;3.13;;;11.40;82.40;;;;;;4864075;29;20024;-86
2023/02/20 13:15:29;;;;;;;5.07;3.28;;;11.40;82.30;;;;;;4875463;29;20029;-87
2023/02/20 13:18:19;;;;;;;4.60;3.45;;;11.40;82.30;;;;;;4860987;29;20032;-84
2023/02/20 13:21:05;;;;;;;5.15;3.47;;;11.40;82.30;;;;;;4858242;29;20029;-86
2023/02/20 13:23:36;;;;;;;4.38;3.08;;;11.40;82.30;;;;;;4856763;29;20123;-84
2023/02/20 13:26:23;;;;;;;4.15;3.20;;;11.40;82.30;;;;;;4875929;29;20036;-84
2023/02/20 13:28:49;;;;;;;4.43;3.35;;;11.40;82.30;;;;;;4872460;29;20029;-83
2023/02/20 13:31:19;;;;;;;4.50;2.80;;;11.40;82.30;;;;;;4846374;29;20040;-85